createdAt,value
2018-08-24T00:01:45.414Z,100179.72
2018-08-24T00:04:14.221Z,100177.14
2018-08-24T00:06:44.901Z,100182.53
2018-08-24T00:09:14.600Z,100171.38
2018-08-24T00:11:44.320Z,100169.50
2018-08-24T00:14:14.253Z,100159.02
2018-08-24T00:16:44.749Z,100165.77
2018-08-24T00:19:15.293Z,100155.83
2018-08-24T00:21:43.888Z,100153.05
2018-08-24T00:24:12.808Z,100156.80
2018-08-24T00:26:41.181Z,100152.08
2018-08-24T00:29:09.930Z,100156.70
2018-08-24T00:31:38.874Z,100154.67
2018-08-24T00:34:07.346Z,100151.11
2018-08-24T00:36:35.713Z,100149.02
2018-08-24T00:39:05.137Z,100142.50
2018-08-24T00:41:33.469Z,100149.66
2018-08-24T00:44:01.847Z,100139.16
2018-08-24T00:46:30.324Z,100135.73
2018-08-24T00:48:58.652Z,100127.30
2018-08-24T00:51:27.044Z,100128.66
2018-08-24T00:53:55.554Z,100132.20
2018-08-24T00:56:23.889Z,100128.77
2018-08-24T00:58:52.313Z,100130.39
2018-08-24T01:01:20.721Z,100130.09
2018-08-24T01:03:49.205Z,100131.78
2018-08-24T01:06:21.804Z,100129.53
2018-08-24T01:08:50.143Z,100131.25
2018-08-24T01:11:19.205Z,100136.55
2018-08-24T01:13:50.808Z,100134.20
2018-08-24T01:16:25.509Z,100128.35
2018-08-24T01:18:53.830Z,100125.84
2018-08-24T01:21:22.997Z,100129.77
2018-08-24T01:23:52.363Z,100122.13
2018-08-24T01:26:23.769Z,100119.29
2018-08-24T01:28:52.882Z,100116.77
2018-08-24T01:31:21.317Z,100110.14
2018-08-24T01:33:53.652Z,100103.58
2018-08-24T01:36:22.017Z,100115.83
2018-08-24T01:38:51.341Z,100124.56
2018-08-24T01:41:20.704Z,100126.47
2018-08-24T01:43:49.912Z,100129.89
2018-08-24T01:46:19.452Z,100128.00
2018-08-24T01:48:49.598Z,100119.31
2018-08-24T01:51:18.040Z,100113.94
2018-08-24T01:53:47.969Z,100111.64
2018-08-24T01:56:17.853Z,100104.08
2018-08-24T01:58:46.177Z,100097.47
2018-08-24T02:01:16.961Z,100102.55
2018-08-24T02:03:47.280Z,100098.59
2018-08-24T02:06:18.132Z,100100.18
2018-08-24T02:08:46.510Z,100096.42
2018-08-24T02:11:22.496Z,100093.66
2018-08-24T02:13:57.272Z,100088.28
2018-08-24T02:16:30.883Z,100082.39
2018-08-24T02:19:05.400Z,100076.56
2018-08-24T02:21:40.228Z,100071.81
2018-08-24T02:24:09.576Z,100066.01
2018-08-24T02:26:39.125Z,100064.68
2018-08-24T02:29:08.377Z,100065.59
2018-08-24T02:31:44.231Z,100068.91
2018-08-24T02:34:12.830Z,100076.31
2018-08-24T02:36:43.819Z,100074.41
2018-08-24T02:39:15.105Z,100074.55
2018-08-24T02:41:44.544Z,100072.17
2018-08-24T02:44:13.952Z,100068.25
2018-08-24T02:46:45.206Z,100070.28
2018-08-24T02:49:15.320Z,100075.38
2018-08-24T02:51:45.969Z,100068.19
2018-08-24T02:54:16.517Z,100060.19
2018-08-24T02:56:48.127Z,100065.89
2018-08-24T02:59:18.357Z,100060.31
2018-08-24T03:01:48.022Z,100050.12
2018-08-24T03:04:17.061Z,100048.20
2018-08-24T03:06:46.822Z,100056.20
2018-08-24T03:09:16.228Z,100050.63
2018-08-24T03:11:46.577Z,100046.22
2018-08-24T03:14:18.019Z,100042.75
2018-08-24T03:16:52.737Z,100043.13
2018-08-24T03:19:21.202Z,100033.20
2018-08-24T03:21:51.465Z,100034.56
2018-08-24T03:24:20.689Z,100037.22
2018-08-24T03:26:50.011Z,100038.40
2018-08-24T03:29:20.182Z,100038.80
2018-08-24T03:31:49.593Z,100046.64
2018-08-24T03:34:18.825Z,100045.70
2018-08-24T03:36:47.829Z,100039.63
2018-08-24T03:39:18.505Z,100039.77
2018-08-24T03:41:47.965Z,100039.12
2018-08-24T03:44:17.203Z,100041.67
2018-08-24T03:46:47.399Z,100046.03
2018-08-24T03:49:17.664Z,100053.48
2018-08-24T03:51:48.082Z,100054.51
2018-08-24T03:54:21.976Z,100067.06
2018-08-24T03:56:58.654Z,100074.47
2018-08-24T03:59:27.311Z,100075.27
2018-08-24T04:01:57.160Z,100074.92
2018-08-24T04:04:26.497Z,100068.22
2018-08-24T04:06:54.834Z,100068.02
2018-08-24T04:09:23.159Z,100060.17
2018-08-24T04:11:52.597Z,100053.75
2018-08-24T04:14:21.942Z,100056.93
2018-08-24T04:16:56.577Z,100056.59
2018-08-24T04:19:27.995Z,100057.22
2018-08-24T04:21:57.772Z,100055.22
2018-08-24T04:24:26.169Z,100050.17
2018-08-24T04:26:55.294Z,100056.73
2018-08-24T04:29:24.089Z,100059.48
2018-08-24T04:31:53.663Z,100056.96
2018-08-24T04:34:22.899Z,100056.90
2018-08-24T04:36:51.297Z,100060.19
2018-08-24T04:39:20.629Z,100046.59
2018-08-24T04:41:49.749Z,100046.19
2018-08-24T04:44:18.596Z,100036.47
2018-08-24T04:46:48.106Z,100038.79
2018-08-24T04:49:16.603Z,100043.41
2018-08-24T04:51:45.534Z,100045.27
2018-08-24T04:54:15.737Z,100050.32
2018-08-24T04:56:45.619Z,100043.22
2018-08-24T04:59:14.536Z,100052.23
2018-08-24T05:01:43.869Z,100056.89
2018-08-24T05:04:12.212Z,100062.78
2018-08-24T05:06:40.545Z,100047.97
2018-08-24T05:09:10.288Z,100056.64
2018-08-24T05:11:39.418Z,100064.83
2018-08-24T05:14:08.176Z,100063.01
2018-08-24T05:16:36.561Z,100066.30
2018-08-24T05:19:05.000Z,100074.07
2018-08-24T05:21:33.360Z,100073.41
2018-08-24T05:24:01.718Z,100072.58
2018-08-24T05:26:31.085Z,100076.33
2018-08-24T05:28:59.564Z,100084.16
2018-08-24T05:31:27.910Z,100085.29
2018-08-24T05:33:56.272Z,100083.46
2018-08-24T05:36:24.630Z,100076.02
2018-08-24T05:38:53.231Z,100070.88
2018-08-24T05:41:21.796Z,100077.45
2018-08-24T05:43:50.225Z,100081.53
2018-08-24T05:46:19.546Z,100081.20
2018-08-24T05:48:48.591Z,100080.83
2018-08-24T05:51:18.262Z,100088.27
2018-08-24T05:53:47.160Z,100086.24
2018-08-24T05:56:15.984Z,100084.46
2018-08-24T05:58:44.934Z,100095.89
2018-08-24T06:01:14.529Z,100100.37
2018-08-24T06:03:44.396Z,100099.20
2018-08-24T06:06:12.810Z,100111.70
2018-08-24T06:08:41.193Z,100113.61
2018-08-24T06:11:09.604Z,100117.53
2018-08-24T06:13:38.009Z,100118.91
2018-08-24T06:16:06.354Z,100117.20
2018-08-24T06:18:34.688Z,100117.11
2018-08-24T06:21:03.128Z,100125.88
2018-08-24T06:23:31.468Z,100127.97
2018-08-24T06:25:59.853Z,100130.75
2018-08-24T06:28:28.173Z,100125.55
2018-08-24T06:30:56.508Z,100126.72
2018-08-24T06:33:25.981Z,100126.02
2018-08-24T06:35:54.373Z,100116.78
2018-08-24T06:38:22.732Z,100117.16
2018-08-24T06:40:51.181Z,100124.69
2018-08-24T06:43:20.389Z,100127.75
2018-08-24T06:45:49.473Z,100114.29
2018-08-24T06:48:18.268Z,100115.83
2018-08-24T06:50:46.752Z,100117.48
2018-08-24T06:53:15.955Z,100118.19
2018-08-24T06:55:44.989Z,100118.90
2018-08-24T06:58:14.545Z,100104.55
2018-08-24T07:00:43.947Z,100106.50
2018-08-24T07:03:13.652Z,100113.48
2018-08-24T07:05:42.040Z,100117.95
2018-08-24T07:08:10.417Z,100116.36
2018-08-24T07:10:38.756Z,100118.39
2018-08-24T07:13:07.257Z,100113.70
2018-08-24T07:15:35.564Z,100118.30
2018-08-24T07:18:04.228Z,100124.04
2018-08-24T07:20:33.041Z,100126.74
2018-08-24T07:23:01.490Z,100136.48
2018-08-24T07:25:29.825Z,100134.06
2018-08-24T07:27:58.205Z,100136.56
2018-08-24T07:30:26.614Z,100147.28
2018-08-24T07:32:55.010Z,100154.31
2018-08-24T07:35:23.397Z,100160.38
2018-08-24T07:37:51.730Z,100168.65
2018-08-24T07:40:20.509Z,100169.77
2018-08-24T07:42:49.252Z,100166.27
2018-08-24T07:45:18.197Z,100166.78
2018-08-24T07:47:46.766Z,100169.11
2018-08-24T07:50:15.824Z,100173.47
2018-08-24T07:52:45.280Z,100169.31
2018-08-24T07:55:14.696Z,100174.84
2018-08-24T07:57:44.109Z,100183.41
2018-08-24T08:00:12.666Z,100182.83
2018-08-24T08:02:44.951Z,100180.95
2018-08-24T08:05:14.750Z,100187.84
2018-08-24T08:07:44.527Z,100185.20
2018-08-24T08:10:13.777Z,100193.99
2018-08-24T08:12:42.185Z,100197.91
2018-08-24T08:15:11.209Z,100183.80
2018-08-24T08:17:40.669Z,100194.80
2018-08-24T08:20:09.745Z,100201.09
2018-08-24T08:22:38.137Z,100204.38
2018-08-24T08:25:06.523Z,100202.11
2018-08-24T08:27:35.967Z,100203.98
2018-08-24T08:30:06.405Z,100196.78
2018-08-24T08:32:34.826Z,100209.32
2018-08-24T08:35:03.169Z,100205.42
2018-08-24T08:37:31.531Z,100204.39
2018-08-24T08:40:02.145Z,100200.73
2018-08-24T08:42:30.651Z,100201.24
2018-08-24T08:45:00.190Z,100210.45
2018-08-24T08:47:28.549Z,100204.34
2018-08-24T08:49:56.884Z,100207.66
2018-08-24T08:52:25.261Z,100212.52
2018-08-24T08:54:53.604Z,100224.20
2018-08-24T08:57:22.001Z,100226.66
2018-08-24T08:59:50.409Z,100237.40
2018-08-24T09:02:19.882Z,100233.06
2018-08-24T09:04:48.343Z,100236.55
2018-08-24T09:07:17.121Z,100232.22
2018-08-24T09:09:46.384Z,100240.16
2018-08-24T09:12:15.868Z,100235.16
2018-08-24T09:14:45.267Z,100241.95
2018-08-24T09:17:19.137Z,100237.23
2018-08-24T09:19:52.925Z,100235.86
2018-08-24T09:22:26.562Z,100240.87
2018-08-24T09:25:00.161Z,100248.48
2018-08-24T09:27:34.662Z,100245.30
2018-08-24T09:30:04.515Z,100249.19
2018-08-24T09:32:32.966Z,100257.72
2018-08-24T09:35:01.359Z,100258.42
2018-08-24T09:37:36.997Z,100257.83
2018-08-24T09:40:05.888Z,100254.01
2018-08-24T09:42:35.361Z,100262.38
2018-08-24T09:45:03.901Z,100257.42
2018-08-24T09:47:37.649Z,100252.69
2018-08-24T09:50:11.761Z,100253.38
2018-08-24T09:52:41.045Z,100244.73
2018-08-24T09:55:10.484Z,100256.38
2018-08-24T09:57:39.673Z,100250.08
2018-08-24T10:00:08.334Z,100261.23
2018-08-24T10:02:42.745Z,100249.28
2018-08-24T10:05:17.493Z,100255.23
2018-08-24T10:07:52.033Z,100259.25
2018-08-24T10:10:20.410Z,100253.90
2018-08-24T10:12:49.821Z,100259.40
2018-08-24T10:15:20.600Z,100254.55
2018-08-24T10:17:49.174Z,100253.21
2018-08-24T10:20:18.689Z,100256.20
2018-08-24T10:22:48.310Z,100260.70
2018-08-24T10:25:18.263Z,100251.84
2018-08-24T10:27:48.246Z,100253.48
2018-08-24T10:30:18.510Z,100249.30
2018-08-24T10:32:48.325Z,100248.27
2018-08-24T10:35:18.785Z,100250.84
2018-08-24T10:37:48.793Z,100246.78
2018-08-24T10:40:19.395Z,100242.09
2018-08-24T10:42:49.818Z,100234.63
2018-08-24T10:45:19.133Z,100239.46
2018-08-24T10:47:48.299Z,100234.92
2018-08-24T10:50:18.281Z,100238.48
2018-08-24T10:52:47.241Z,100236.78
2018-08-24T10:55:16.489Z,100231.38
2018-08-24T10:57:46.228Z,100234.89
2018-08-24T11:00:16.164Z,100226.70
2018-08-24T11:02:45.421Z,100228.61
2018-08-24T11:05:16.345Z,100220.13
2018-08-24T11:07:45.269Z,100217.98
2018-08-24T11:10:15.237Z,100224.96
2018-08-24T11:12:45.201Z,100241.49
2018-08-24T11:15:15.557Z,100263.09
2018-08-24T11:17:49.344Z,100279.48
2018-08-24T11:20:18.348Z,100305.17
2018-08-24T11:22:47.682Z,100289.50
2018-08-24T11:25:17.418Z,100287.38
2018-08-24T11:27:46.989Z,100287.64
2018-08-24T11:30:16.285Z,100299.88
2018-08-24T11:32:45.225Z,100298.84
2018-08-24T11:35:15.060Z,100309.11
2018-08-24T11:37:45.285Z,100316.44
2018-08-24T11:40:15.246Z,100307.11
2018-08-24T11:42:45.194Z,100313.72
2018-08-24T11:45:15.829Z,100320.11
2018-08-24T11:47:45.384Z,100320.52
2018-08-24T11:50:16.181Z,100319.34
2018-08-24T11:52:45.507Z,100319.69
2018-08-24T11:55:15.658Z,100316.29
2018-08-24T11:57:45.138Z,100319.42
2018-08-24T12:00:15.977Z,100319.90
2018-08-24T12:02:46.229Z,100320.03
2018-08-24T12:05:16.018Z,100312.28
2018-08-24T12:07:46.648Z,100307.95
2018-08-24T12:10:15.965Z,100311.41
2018-08-24T12:12:45.240Z,100306.09
2018-08-24T12:15:14.345Z,100302.83
2018-08-24T12:17:43.431Z,100300.00
2018-08-24T12:20:11.841Z,100302.83
2018-08-24T12:22:40.172Z,100293.64
2018-08-24T12:25:08.502Z,100296.49
2018-08-24T12:27:36.842Z,100294.84
2018-08-24T12:30:06.351Z,100287.73
2018-08-24T12:32:34.686Z,100295.31
2018-08-24T12:35:03.026Z,100297.34
2018-08-24T12:37:35.508Z,100290.77
2018-08-24T12:40:03.917Z,100293.88
2018-08-24T12:42:32.259Z,100291.91
2018-08-24T12:45:00.680Z,100293.05
2018-08-24T12:47:30.037Z,100282.05
2018-08-24T12:49:58.363Z,100287.78
2018-08-24T12:52:26.705Z,100279.55
2018-08-24T12:54:55.065Z,100281.84
2018-08-24T12:57:29.465Z,100278.27
2018-08-24T12:59:59.655Z,100277.95
2018-08-24T13:02:27.975Z,100274.28
2018-08-24T13:04:56.541Z,100290.29
2018-08-24T13:07:25.854Z,100280.61
2018-08-24T13:09:55.097Z,100280.00
2018-08-24T13:12:24.225Z,100272.21
2018-08-24T13:14:53.466Z,100275.39
2018-08-24T13:17:22.651Z,100271.17
2018-08-24T13:19:50.985Z,100285.23
2018-08-24T13:22:20.526Z,100279.28
2018-08-24T13:24:50.501Z,100280.41
2018-08-24T13:27:21.363Z,100278.15
2018-08-24T13:29:50.670Z,100267.58
2018-08-24T13:32:20.112Z,100267.67
2018-08-24T13:34:50.394Z,100273.22
2018-08-24T13:37:20.413Z,100266.98
2018-08-24T13:39:50.653Z,100275.50
2018-08-24T13:42:20.057Z,100280.00
2018-08-24T13:44:50.508Z,100280.94
2018-08-24T13:47:21.466Z,100280.19
2018-08-24T13:49:50.790Z,100279.30
2018-08-24T13:52:20.050Z,100275.55
2018-08-24T13:54:50.165Z,100285.20
2018-08-24T13:57:19.381Z,100293.43
2018-08-24T13:59:49.710Z,100294.77
2018-08-24T14:02:19.866Z,100295.13
2018-08-24T14:04:50.092Z,100293.84
2018-08-24T14:07:20.410Z,100300.50
2018-08-24T14:09:50.506Z,100307.50
2018-08-24T14:12:19.264Z,100293.98
2018-08-24T14:14:48.617Z,100291.18
2018-08-24T14:17:18.542Z,100285.89
2018-08-24T14:19:48.489Z,100284.23
2018-08-24T14:22:18.525Z,100288.47
2018-08-24T14:24:48.413Z,100288.23
2018-08-24T14:27:18.521Z,100283.73
2018-08-24T14:29:48.057Z,100287.91
2018-08-24T14:32:16.484Z,100282.29
2018-08-24T14:34:46.002Z,100280.48
2018-08-24T14:37:14.820Z,100276.49
2018-08-24T14:39:45.472Z,100285.13
2018-08-24T14:42:14.369Z,100286.98
2018-08-24T14:44:43.846Z,100286.47
2018-08-24T14:47:12.173Z,100286.21
2018-08-24T14:49:40.649Z,100282.65
2018-08-24T14:52:08.970Z,100286.91
2018-08-24T14:54:37.383Z,100286.58
2018-08-24T14:57:05.776Z,100282.47
2018-08-24T14:59:34.131Z,100278.67
2018-08-24T15:02:02.471Z,100275.70
2018-08-24T15:04:30.815Z,100285.66
2018-08-24T15:06:59.145Z,100286.67
2018-08-24T15:09:27.481Z,100288.34
2018-08-24T15:11:55.823Z,100282.13
2018-08-24T15:14:24.149Z,100292.91
2018-08-24T15:16:52.545Z,100285.94
2018-08-24T15:19:20.922Z,100287.89
2018-08-24T15:21:50.468Z,100282.23
2018-08-24T15:24:20.034Z,100277.86
2018-08-24T15:26:49.363Z,100280.12
2018-08-24T15:29:18.661Z,100273.25
2018-08-24T15:31:47.090Z,100282.23
2018-08-24T15:34:16.437Z,100286.11
2018-08-24T15:36:47.014Z,100280.71
2018-08-24T15:39:16.422Z,100279.08
2018-08-24T15:41:45.881Z,100277.56
2018-08-24T15:44:15.114Z,100274.18
2018-08-24T15:46:45.093Z,100275.41
2018-08-24T15:49:15.104Z,100272.63
2018-08-24T15:51:44.199Z,100268.88
2018-08-24T15:54:13.284Z,100274.29
2018-08-24T15:56:43.329Z,100261.34
2018-08-24T15:59:11.666Z,100255.72
2018-08-24T16:01:39.999Z,100269.67
2018-08-24T16:04:08.340Z,100272.12
2018-08-24T16:06:36.676Z,100268.12
2018-08-24T16:09:08.125Z,100272.53
2018-08-24T16:11:37.877Z,100275.77
2018-08-24T16:14:07.093Z,100281.07
2018-08-24T16:16:36.663Z,100274.17
2018-08-24T16:19:04.913Z,100271.80
2018-08-24T16:21:34.185Z,100273.33
2018-08-24T16:24:02.524Z,100270.17
2018-08-24T16:26:30.889Z,100277.66
2018-08-24T16:29:00.294Z,100282.17
2018-08-24T16:31:29.429Z,100285.80
2018-08-24T16:33:58.837Z,100294.45
2018-08-24T16:36:28.269Z,100298.45
2018-08-24T16:38:57.655Z,100302.74
2018-08-24T16:41:26.882Z,100307.03
2018-08-24T16:43:56.168Z,100305.11
2018-08-24T16:46:24.485Z,100312.93
2018-08-24T16:48:53.737Z,100312.84
2018-08-24T16:51:22.954Z,100309.50
2018-08-24T16:53:52.225Z,100308.66
2018-08-24T16:56:21.674Z,100309.78
2018-08-24T16:58:52.164Z,100312.37
2018-08-24T17:01:20.503Z,100301.77
2018-08-24T17:03:49.952Z,100306.71
2018-08-24T17:06:19.470Z,100308.33
2018-08-24T17:08:48.637Z,100318.25
2018-08-24T17:11:18.648Z,100320.91
2018-08-24T17:13:47.141Z,100315.73
2018-08-24T17:16:16.356Z,100319.28
2018-08-24T17:18:47.574Z,100334.08
2018-08-24T17:21:18.688Z,100332.62
2018-08-24T17:23:47.626Z,100331.48
2018-08-24T17:26:17.579Z,100332.35
2018-08-24T17:28:47.572Z,100335.41
2018-08-24T17:31:17.575Z,100331.64
2018-08-24T17:33:47.923Z,100333.27
2018-08-24T17:36:17.557Z,100336.04
2018-08-24T17:38:47.089Z,100337.51
2018-08-24T17:41:16.451Z,100337.81
2018-08-24T17:43:46.118Z,100323.61
2018-08-24T17:46:16.394Z,100333.11
2018-08-24T17:48:47.791Z,100331.91
2018-08-24T17:51:17.121Z,100328.73
2018-08-24T17:53:46.625Z,100329.17
2018-08-24T17:56:16.385Z,100329.77
2018-08-24T17:58:47.672Z,100329.77
2018-08-24T18:01:15.989Z,100332.64
2018-08-24T18:03:46.433Z,100345.31
2018-08-24T18:06:17.559Z,100342.06
2018-08-24T18:08:47.971Z,100332.53
2018-08-24T18:11:16.381Z,100349.27
2018-08-24T18:13:47.657Z,100344.42
2018-08-24T18:16:18.021Z,100354.01
2018-08-24T18:18:47.757Z,100354.55
2018-08-24T18:21:17.706Z,100366.45
2018-08-24T18:23:47.969Z,100365.66
2018-08-24T18:26:17.609Z,100368.02
2018-08-24T18:28:46.028Z,100382.88
2018-08-24T18:31:15.745Z,100379.21
2018-08-24T18:33:44.446Z,100379.56
2018-08-24T18:36:13.486Z,100382.05
2018-08-24T18:38:41.974Z,100377.59
2018-08-24T18:41:10.301Z,100383.00
2018-08-24T18:43:38.643Z,100383.69
2018-08-24T18:46:07.005Z,100389.67
2018-08-24T18:48:35.466Z,100399.02
2018-08-24T18:51:03.789Z,100396.86
2018-08-24T18:53:32.129Z,100402.34
2018-08-24T18:56:00.530Z,100404.84
2018-08-24T18:58:28.930Z,100394.05
2018-08-24T19:00:57.248Z,100406.70
2018-08-24T19:03:25.581Z,100407.24
2018-08-24T19:05:53.945Z,100410.11
2018-08-24T19:08:22.343Z,100412.44
2018-08-24T19:10:56.111Z,100406.95
2018-08-24T19:13:24.504Z,100408.80
2018-08-24T19:15:52.844Z,100409.79
2018-08-24T19:18:26.640Z,100405.97
2018-08-24T19:21:00.377Z,100401.69
2018-08-24T19:23:28.697Z,100413.09
2018-08-24T19:25:57.043Z,100416.78
2018-08-24T19:28:30.828Z,100423.05
2018-08-24T19:30:59.157Z,100420.74
2018-08-24T19:33:27.511Z,100412.50
2018-08-24T19:35:55.882Z,100419.27
2018-08-24T19:38:24.234Z,100420.96
2018-08-24T19:40:58.851Z,100419.47
2018-08-24T19:43:27.258Z,100420.97
2018-08-24T19:45:56.600Z,100426.42
2018-08-24T19:48:30.425Z,100421.31
2018-08-24T19:50:58.905Z,100419.31
2018-08-24T19:53:28.257Z,100425.27
2018-08-24T19:55:57.486Z,100427.63
2018-08-24T19:58:31.125Z,100426.96
2018-08-24T20:01:00.430Z,100423.13
2018-08-24T20:03:29.649Z,100423.45
2018-08-24T20:06:04.276Z,100418.18
2018-08-24T20:08:39.117Z,100414.19
2018-08-24T20:11:07.740Z,100410.23
2018-08-24T20:13:37.001Z,100421.31
2018-08-24T20:16:11.737Z,100428.27
2018-08-24T20:18:41.333Z,100423.95
2018-08-24T20:21:10.684Z,100423.17
2018-08-24T20:23:39.889Z,100420.52
2018-08-24T20:26:08.253Z,100423.31
2018-08-24T20:28:36.717Z,100423.34
2018-08-24T20:31:06.009Z,100419.88
2018-08-24T20:33:35.447Z,100419.70
2018-08-24T20:36:04.859Z,100422.37
2018-08-24T20:38:34.002Z,100423.05
2018-08-24T20:41:03.387Z,100418.73
2018-08-24T20:43:31.790Z,100418.91
2018-08-24T20:46:01.132Z,100421.55
2018-08-24T20:48:29.894Z,100426.19
2018-08-24T20:50:59.278Z,100422.05
2018-08-24T20:53:28.529Z,100426.35
2018-08-24T20:55:56.906Z,100433.79
2018-08-24T20:58:25.557Z,100431.83
2018-08-24T21:00:54.773Z,100433.45
2018-08-24T21:03:24.172Z,100440.58
2018-08-24T21:05:53.406Z,100441.26
2018-08-24T21:08:22.706Z,100437.45
2018-08-24T21:10:52.029Z,100443.74
2018-08-24T21:13:21.277Z,100446.02
2018-08-24T21:15:50.627Z,100445.19
2018-08-24T21:18:19.937Z,100445.55
2018-08-24T21:20:50.537Z,100443.38
2018-08-24T21:23:20.856Z,100448.02
2018-08-24T21:25:50.185Z,100443.03
2018-08-24T21:28:19.513Z,100442.55
2018-08-24T21:30:49.768Z,100442.40
2018-08-24T21:33:20.114Z,100444.05
2018-08-24T21:35:49.522Z,100446.84
2018-08-24T21:38:18.796Z,100443.39
2018-08-24T21:40:47.877Z,100444.03
2018-08-24T21:43:17.663Z,100444.17
2018-08-24T21:45:46.902Z,100447.30
2018-08-24T21:48:16.097Z,100441.01
2018-08-24T21:50:46.685Z,100441.50
2018-08-24T21:53:15.904Z,100443.97
2018-08-24T21:55:45.414Z,100448.94
2018-08-24T21:58:14.554Z,100449.60
2018-08-24T22:00:43.933Z,100455.52
2018-08-24T22:03:13.963Z,100454.54
2018-08-24T22:05:44.441Z,100461.19
2018-08-24T22:08:14.561Z,100454.41
2018-08-24T22:10:42.906Z,100459.55
2018-08-24T22:13:11.256Z,100460.84
2018-08-24T22:15:39.910Z,100456.91
2018-08-24T22:18:08.280Z,100463.34
2018-08-24T22:20:36.705Z,100467.66
2018-08-24T22:23:05.232Z,100463.52
2018-08-24T22:25:33.569Z,100465.99
2018-08-24T22:28:01.929Z,100461.54
2018-08-24T22:30:30.268Z,100471.31
2018-08-24T22:32:58.832Z,100475.08
2018-08-24T22:35:27.272Z,100476.74
2018-08-24T22:37:55.592Z,100476.70
2018-08-24T22:40:23.916Z,100473.92
2018-08-24T22:42:52.245Z,100474.41
2018-08-24T22:45:20.667Z,100473.40
2018-08-24T22:47:50.017Z,100474.72
2018-08-24T22:50:20.248Z,100468.11
2018-08-24T22:52:50.781Z,100467.77
2018-08-24T22:55:20.142Z,100467.76
2018-08-24T22:57:49.245Z,100465.78
2018-08-24T23:00:18.561Z,100455.52
2018-08-24T23:02:47.877Z,100449.87
2018-08-24T23:05:16.262Z,100448.36
2018-08-24T23:07:47.724Z,100451.54
2018-08-24T23:10:17.002Z,100468.66
2018-08-24T23:12:47.861Z,100461.22
2018-08-24T23:15:17.905Z,100468.97
2018-08-24T23:17:48.153Z,100454.41
2018-08-24T23:20:17.991Z,100453.00
2018-08-24T23:22:47.303Z,100446.73
2018-08-24T23:25:17.524Z,100446.04
2018-08-24T23:27:47.997Z,100439.78
2018-08-24T23:30:17.344Z,100445.71
2018-08-24T23:32:47.545Z,100456.55
2018-08-24T23:35:16.828Z,100454.22
2018-08-24T23:37:46.183Z,100445.62
2018-08-24T23:40:16.345Z,100450.37
2018-08-24T23:42:45.873Z,100460.75
2018-08-24T23:45:15.616Z,100450.83
2018-08-24T23:47:45.510Z,100456.80
2018-08-24T23:50:16.003Z,100464.37
2018-08-24T23:52:45.110Z,100469.79
2018-08-24T23:55:15.150Z,100461.94
2018-08-24T23:57:45.159Z,100462.41
